Home > Products > Valid Products > MTR

000
SAZS31 NSTU 201554
MTRPPG
METAR NSTU 201553Z 11013KT 10SM FEW017 SCT040 OVC090 28/24 A2985 RMK
SLP108 T02750237=




000
SAZS31 NSTU 201452
MTRPPG
METAR NSTU 201450Z 09010KT 10SM FEW017 SCT040 OVC100 27/25 A2985 RMK
RAE14 SLP110 60009 8/82/ T02650245 57008=




000
SAZS31 NSTU 201353
MTRPPG
METAR NSTU 201353Z 04005KT 8SM -RA FEW016 SCT040 OVC090 25/24 A2985
RMK SLP108 T02530235=




000
SAZS31 NSTU 201257
MTRPPG
METAR NSTU 201257Z 29003KT 8SM +RA SCT015 BKN035 OVC090 25/24 A2986
RMK SLP112 T02490239=




000
SAZS31 NSTU 201155
MTRPPG
METAR NSTU 201152Z 03006KT 9SM -RA SCT016 BKN035 OVC090 25/24 A2988
RMK SLP119 60019 70168 8/82/ T02520237 10257 20249 57003=




000
SAZS31 NSTU 201059
MTRPPG
METAR NSTU 201059Z 09010KT 10SM -SHRA SCT016TCU BKN035 OVC080 25/24
A2990 RMK SHRAB20 TCU ALQDS SLP125 T02530242 402970243=




000
SAZS31 NSTU 200958
MTRPPG
METAR NSTU 200958Z 13012KT 10SM SCT016TCU BKN035 OVC080 26/24 A2989
RMK SHRAE10 TCU ALQDS SLP124 T02570241=




000
SAZS31 NSTU 200852
MTRPPG
METAR NSTU 200850Z 10008KT 10SM -SHRA SCT016TCU BKN035 OVC080 26/25
A2989 RMK TCU ALQDS SLP122 60017 8/82/ T02560245 52010=




000
SAZS31 NSTU 200751
MTRPPG
METAR NSTU 200750Z 31004KT 10SM -RA SCT016TCU BKN035 OVC080 25/24
A2988 RMK TCU ALQDS SLP120 T02490239=




000
SAZS31 NSTU 200652
MTRPPG
METAR NSTU 200652Z 27003KT 08SM -RA SCT016TCU BKN035 OVC080 25/24
A2984 RMK TCU ALQDS SLP107 T02520237=




000
SAZS31 NSTU 200557
MTRPPG
METAR NSTU 200554Z 09005KT 08SM -RA SCT016TCU BKN035 OVC080 25/24
A2986 RMK RAB48 TCU ALQDS SLP112 60025 8/82/ T02540236 10279 20254
52012=




000
SAZS31 NSTU 200452
MTRPPG
METAR NSTU 200451Z 08005KT 08SM SCT016TCU BKN035 OVC080 26/25 A2984
RMK SHRAE10 TCU ALQDS SLP107 T02590246=




000
SAZS31 NSTU 200357
MTRPPG
METAR NSTU 200356Z 05004KT 7SM SHRA SCT016TCU BKN035 OVC080 26/25
A2983 RMK TCU ALQS SLP103 T02590246=




000
SAZS31 NSTU 200251
MTRPPG
METAR NSTU 200252Z VRB03KT 7SM SHRA BKN013TCU BKN035 OVC070 26/25
A2982 RMK TCU ALQDS SLP100 60017 8/87/ T02580246 56008=




000
SAZS31 NSTU 200202
MTRPPG
METAR NSTU 200150Z 04008KT 7SM SHRA BKN013TCU BKN035 OVC070 26/24
A2982 RMK TCU ALQDS SLP098 T02610243=




000
SAZS31 NSTU 200202
MTRPPG
METAR NSTU 200051Z VRB03KT 11SM -RA SCT013TCU BKN040 OVC070 28/25
A2983 RMK TCU ALQDS SLP102 T02790251=




000
SAZS31 NSTU 192357
MTRPPG
METAR NSTU 192352Z 00000KT 12SM RA SCT013TCU BKN037 OVC070 27/24
A2985 RMK SHRAB05 TCU ALQDS SLP108 60058 8/87/ T02660243 10297 20245
 56015=




000
SAZS31 NSTU 192250
MTRPPG
METAR NSTU 192250Z 11010KT 12SM VCSH SCT015TCU BKN037 BKN070 28/25
A2986 RMK VCSH NW-NE SLP112 T02830245=




000
SAZS31 NSTU 192152
MTRPPG
METAR NSTU 192152Z VRB04KT 12SM VCSH SCT015TCU BKN037 BKN070 30/25
A2988 RMK RAE14 VCSH SE TCU ALQDS SLP119 T02970251=




000
SAZS31 NSTU 192052
MTRPPG
METAR NSTU 192051Z VRB03KT 12SM -RA SCT015TCU BKN040 BKN080 27/25
A2989 RMK RAB49 TCU S-SW SLP124 60055 8/870 T02730245 51010=




000
SAZS31 NSTU 191951
MTRPPG
METAR NSTU 191951Z 00000KT 12SM SCT018 BKN045 BKN100 26/24 A2989 RMK
 RAE44 SLP120 T02640241=




000
SAZS31 NSTU 191850
MTRPPG
METAR NSTU 191851Z 02006KT 9SM +RA SCT018 BKN045 OVC100 25/24 A2987
RMK SLP117 T02460237=




000
SAZS31 NSTU 191756
MTRPPG
METAR NSTU 191754Z 01004KT 7SM RA SCT017 BKN040 OVC090 25/23 A2986
RMK SLP113 60066 8/82/ T02450233 10260 20243 52014=




000
SAZS31 NSTU 191655
MTRPPG
METAR NSTU 191655Z 04006KT 7SM RA SCT017 BKN040 OVC090 25/24 A2985
RMK SLP110 T02480237=




000
SAZS31 NSTU 191550
MTRPPG
METAR NSTU 191550Z 33003KT 10SM -RA FEW019 SCT040 OVC090 25/24 A2983
RMK SLP102 T02450236=




000
SAZS31 NSTU 191513
MTRPPG
METAR NSTU 191455Z 29004KT 6SM -SHRA SCT017 BKN040 OVC090 24/23
A2982 RMK SLP100 60056 8/82/ T02430234 57008=




000
SAZS31 NSTU 191358
MTRPPG
METAR NSTU 191358Z 01005KT 4SM SHRA BKN016 BKN040 OVC090 25/23 A2983
RMK SHRAB22 SLP103 T02470234=




000
SAZS31 NSTU 191249
MTRPPG
METAR NSTU 191250Z 04006KT 10SM SCT018 BKN040 BKN090 26/24 A2983 RMK
SHRAE10 SLP102 T02600239=




000
SAZS31 NSTU 191155
MTRPPG
METAR NSTU 191154Z 06006KT 5SM -SHRA SCT017 BKN040 OVC090 26/24
A2985 RMK SHRAB24 SLP108 60003 70014 8/82/ T02600240 10278 20260
57005=




000
SAZS31 NSTU 191050
MTRPPG
METAR NSTU 191050Z 05008KT 10SM FEW020 SCT040 OVC100 27/24 A2986 RMK
 SLP113 T02690235 403050237=




000
SAZS31 NSTU 190954
MTRPPG
METAR NSTU 190951Z 12013KT 10SM FEW020 SCT050 BKN110 28/24 A2986 RMK
 SLP113 T02780239=




000
SAZS31 NSTU 190953
MTRPPG
METAR NSTU 190853Z 12012KT 10SM FEW020 SCT050 BKN110 28/24 A2987 RMK
 SLP113 60000 8/870 T02770240 51010=




000
SAZS31 NSTU 190750
MTRPPG
METAR NSTU 190750Z 13008KT 10SM FEW020 SCT045 BKN110 28/24 A2987 RMK
 SLP115 T02770244=




000
SAZS31 NSTU 190650
MTRPPG
METAR NSTU 190651Z 14009KT 10SM SCT018 BKN045 OVC080 27/24 A2986 RMK
 SLP112 T02720240=




000
SAZS31 NSTU 190552
MTRPPG
METAR NSTU 190550Z 15014KT 10SM -SHRA SCT015TCU BKN040 OVC080 26/25
A2983 RMK SHRAB05 TCU ALQDS SLP103 60011 8/87/ T02640245 10305 20264
 51010=




000
SAZS31 NSTU 190454
MTRPPG
METAR NSTU 190454Z 12009KT 12SM VCSH SCT017TCU BKN040 BKN080 28/24
A2981 RMK VCSH N-NE AND S-SW TCU ALQDS SLP097 T02830240=




000
SAZS31 NSTU 190349
MTRPPG
METAR NSTU 190350Z 12009KT 12SM SCT017TCU BKN040 29/24 A2980 RMK TCU
 ALQDS SLP093 T02900237=




000
SAZS31 NSTU 190254
MTRPPG
METAR NSTU 190253Z 12008KT 12SM SCT019TCU SCT040 BKN100 29/24 A2980
RMK SHRAB11E28 TCU N SLP093 60000 8/470 T02870238 57007=




000
SAZS31 NSTU 190201
MTRPPG
METAR NSTU 190156Z 13008KT 12SM SCT021 SCT040 BKN090 29/24 A2980 RMK
SLP093 T02870241=




000
SAZS31 NSTU 190055
MTRPPG
METAR NSTU 190052Z 12006KT 12SM SCT022 BKN100 31/24 A2981 RMK SLP095
T03050241=




000
SAZS31 NSTU 182356
MTRPPG
METAR NSTU 182356Z 09005KT 12SM SCT022 30/23 A2982 RMK SLP100 8/100
T03010231 10303 20238 57014=




000
SAZS31 NSTU 182254
MTRPPG
METAR NSTU 182254Z 12007KT 12SM SCT022 30/24 A2985 RMK SLP108
T03030237=




000
SAZS31 NSTU 182155
MTRPPG
METAR NSTU 182155Z 13006KT 12SM SCT022 30/24 A2986 RMK SLP113
T03010236=




000
SAZS31 NSTU 182051
MTRPPG
METAR NSTU 182052Z 13008KT 12SM SCT021 30/24 A2986 RMK SLP113 8/100
T02950238 52012=




000
SAZS31 NSTU 182005
MTRPPG
METAR NSTU 181954Z 15006KT 12SM SCT021 29/24 A2986 RMK SLP112
T02890240=




000
SAZS31 NSTU 181850
MTRPPG
METAR NSTU 181850Z 00000KT 12SM FEW030 SCT100 26/24 A2984 RMK SLP107
T02640242=




000
SAZS31 NSTU 181754
MTRPPG
METAR NSTU 181752Z 00000KT 12SM FEW030 24/23 A2983 RMK SLP102 8/100
T02380227 10242 20237 52010=




000
SAZS31 NSTU 181656
MTRPPG
METAR NSTU 181655Z 31004KT 11SM SKC 24/23 A2981 RMK SLP095 T02370227=




000
SAZS31 NSTU 181651
MTRPPG
METAR NSTU 181552Z 31003KT 10SM FEW021 24/22 A2981 RMK SLP095
T02370223=




000
SAZS31 NSTU 181456
MTRPPG
METAR NSTU 181456Z 31003KT 10SM FEW021 24/22 A2980 RMK SLP091 8/100
T02370223 57015=




000
SAZS31 NSTU 181424
MTRPPG
METAR NSTU 181350Z 33003KT 10SM FEW021 24/22 A2980 RMK SLP093
T02380224=




000
SAZS31 NSTU 181251
MTRPPG
METAR NSTU 181251Z 25003KT 10SM FEW021 24/22 A2982 RMK SLP100
T02390223=





000
SAZS31 NSTU 181151
MTRPPG
METAR NSTU 181150Z 31003KT 10SM FEW021 24/23 A2984 RMK SLP107 70003
8/100 T02420226 10259 20242 57003=




000
SAZS31 NSTU 181049
MTRPPG
METAR NSTU 181050Z VRB02KT 10SM FEW019 24/23 A2985 RMK SLP110
T02430225 403000243=




000
SAZS31 NSTU 180952
MTRPPG
METAR NSTU 180953Z 00000KT 10SM FEW016TCU FEW110 25/23 A2986 RMK TCU
 S SLP112 T02500227=




000
SAZS31 NSTU 180852
MTRPPG
METAR NSTU 180853Z VRB03KT 10SM FEW023 FEW110 25/23 A2986 RMK SLP110
 8/170 T02510228 51014=




000
SAZS31 NSTU 180749
MTRPPG
METAR NSTU 180750Z VRB03KT 10SM FEW023 25/23 A2985 RMK SLP108
T02530229=




000
SAZS31 NSTU 180652
MTRPPG
METAR NSTU 180653Z VRB02KT 10SM FEW023 SCT050 25/23 A2983 RMK SLP102
 T02540230=




000
SAZS31 NSTU 180556
MTRPPG
METAR NSTU 180554Z VRB02KT 10SM FEW018 SCT050 SCT110 26/23 A2981 RMK
 SLP097 60000 8/470 T02590234 10300 20259 51015=




000
SAZS31 NSTU 180448
MTRPPG
METAR NSTU 180450Z VRB03KT 12SM SCT018 BKN050 27/24 A2979 RMK SLP088
 T02740235=




000
SAZS31 NSTU 180350
MTRPPG
METAR NSTU 180351Z 13006KT 12SM SCT018 BKN040 28/24 A2978 RMK SLP085
 T02760239=




000
SAZS31 NSTU 180300
MTRPPG
METAR NSTU 180255Z 06007KT 12SM VCSH SCT018 BKN040 BKN100 28/24
A2977 RMK SHRAE15 VCSH SE SLP081 60000 8/470 T02800240 57012=





000
SAZS31 NSTU 180200
MTRPPG
METAR NSTU 180152Z 02006KT 10SM -SHRA SCT018 BKN040 BKN100 26/23
A2978 RMK SHRAB48 SLP085 T02640234=





000
SAZS31 NSTU 180118
MTRPPG
METAR NSTU 180051Z 11004KT 12SM VCSH SCT018TCU SCT040 BKN100 29/24
A2979 RMK VCSH N-E TCU N-E SLP088 T02870242=




000
SAZS31 NSTU 180114
MTRPPG
METAR NSTU 180051Z 11004KT 12SM VCSH SCT018TCU SCT040 BKN100 29/24
A2979 RMK VCSH N-E TCU N-E SLP088 T02870242=




000
SAZS31 NSTU 180100
MTRPPG
METAR NSTU 180051Z 11004KT 12SM VCSH SCT018TCU SCT040 BKN100 29/24
A2979 RMK VCSH N-E TCU N-E SLP088 T02870242=





000
SAZS31 NSTU 180051
MTRPPG
METAR NSTU 180051Z 11004KT 12SM VCSH SCT018TCU SCT040 BKN100 29/24
A2979 RMK VCSH N-E TCU N-E SLP088 T02870242=




000
SMZS01 NSTU 172354
MTRPPG
AAXX 18004
91765 11469 51104 10300 20247 30090 40093 57017 69984 70282 83170
333 20254 5629/ 58003 70008 555 91800=




000
SAZS31 NSTU 172249
MTRPPG
METAR NSTU 172250Z 11004KT 12SM FEW018 BKN110 30/25 A2983 RMK SLP102
T02990249=




000
SAZS31 NSTU 172155
MTRPPG
METAR NSTU 172156Z 13005KT 12SM SCT017 BKN110 29/25 A2984 RMK SLP107
T02900247=




000
SAZS31 NSTU 172103
MTRPPG
METAR NSTU 172053Z 14008KT 12SM SCT022 BKN110 29/25 A2985 RMK SLP110
60003 8/170 T02880250 52014=




000
SAZS31 NSTU 171957
MTRPPG
METAR NSTU 171957Z 14009KT 12SM SCT022 BKN090 28/23 A2985 RMK SLP108
T02810234=




000
SAZS31 NSTU 171854
MTRPPG
METAR NSTU 171852Z 16010KT 12SM SCT022TCU BKN050 BKN100 27/23 A2983
RMK SHRAB01E50 TCU NW-NE SLP103 T02720234=





000
SAZS31 NSTU 171757
MTRPPG
METAR NSTU 171752Z 15010KT 12SM SCT019TCU BKN050 BKN100 OVC200 27/25
A2981 RMK TCU N-NE AND W-NW SLP097 60000 8/478 T02730246 10273
20254 52010=




000
SAZS31 NSTU 171651
MTRPPG
METAR NSTU 171651Z 34003KT 11SM SCT020 BKN100 BKN200 26/24 A2980 RMK
SLP091 T02550239=




    US Dept of Commerce
    National Oceanic and Atmospheric Administration
    National Weather Service
    1325 East West Highway
    Silver Spring, MD 20910
    Page Author: NWS Internet Services Team
Disclaimer
Information Quality
Credits
Glossary
Privacy Policy
Freedom of Information Act (FOIA)
About Us
Career Opportunities